createdAt,value
2023-10-20T00:46:11.349Z,96882.03
2023-10-20T00:48:39.894Z,96881.59
2023-10-20T00:51:08.767Z,96874.22
2023-10-20T00:53:38.123Z,96870.25
2023-10-20T00:56:07.541Z,96862.59
2023-10-20T00:58:35.924Z,96862.97
2023-10-20T01:01:06.142Z,96852.38
2023-10-20T01:03:37.136Z,96852.34
2023-10-20T01:06:06.364Z,96842.38
2023-10-20T01:08:35.514Z,96834.84
2023-10-20T01:11:16.400Z,96825.91
2023-10-20T01:13:44.146Z,96816.72
2023-10-20T01:16:12.099Z,96814.22
2023-10-20T01:18:41.576Z,96807.09
2023-10-20T01:21:09.410Z,96807.44
2023-10-20T01:23:39.088Z,96795.41
2023-10-20T01:26:08.968Z,96793.75
2023-10-20T01:28:38.192Z,96796.09
2023-10-20T01:31:06.073Z,96789.69
2023-10-20T01:33:33.977Z,96793.56
2023-10-20T01:36:02.104Z,96789.22
2023-10-20T01:38:30.141Z,96776.75
2023-10-20T01:40:57.988Z,96785.56
2023-10-20T01:43:27.238Z,96778.06
2023-10-20T01:45:55.103Z,96773.72
2023-10-20T01:48:22.977Z,96766.66
2023-10-20T01:50:51.051Z,96759.38
2023-10-20T01:53:19.048Z,96761.59
2023-10-20T01:55:50.907Z,96761.25
2023-10-20T01:58:19.712Z,96749.72
2023-10-20T02:00:52.144Z,96753.28
2023-10-20T02:03:21.222Z,96751.31
2023-10-20T02:05:49.500Z,96737.31
2023-10-20T02:08:18.022Z,96748.75
2023-10-20T02:10:46.654Z,96740.81
2023-10-20T02:13:14.690Z,96731.38
2023-10-20T02:15:48.036Z,96731.38
2023-10-20T02:18:18.642Z,96723.84
2023-10-20T02:20:46.813Z,96717.34
2023-10-20T02:23:14.518Z,96719.63
2023-10-20T02:25:42.186Z,96718.72
2023-10-20T02:28:09.817Z,96719.84
2023-10-20T02:30:37.508Z,96724.44
2023-10-20T02:33:05.677Z,96707.25
2023-10-20T02:35:34.764Z,96706.38
2023-10-20T02:38:02.547Z,96711.28
2023-10-20T02:40:30.223Z,96700.78
2023-10-20T02:42:57.912Z,96690.97
2023-10-20T02:45:25.625Z,96676.13
2023-10-20T02:47:53.631Z,96672.69
2023-10-20T02:50:21.614Z,96666.78
2023-10-20T02:52:50.820Z,96670.94
2023-10-20T02:55:18.855Z,96664.25
2023-10-20T02:57:46.498Z,96650.13
2023-10-20T03:00:19.215Z,96661.41
2023-10-20T03:02:49.719Z,96647.81
2023-10-20T03:05:17.977Z,96621.25
2023-10-20T03:07:46.940Z,96627.53
2023-10-20T03:10:17.345Z,96630.44
2023-10-20T03:12:45.011Z,96619.09
2023-10-20T03:15:12.956Z,96611.28
2023-10-20T03:17:40.682Z,96613.75
2023-10-20T03:20:10.546Z,96613.78
2023-10-20T03:22:38.602Z,96602.47
2023-10-20T03:25:08.938Z,96599.13
2023-10-20T03:27:39.055Z,96591.78
2023-10-20T03:30:08.157Z,96566.72
2023-10-20T03:32:36.375Z,96547.59
2023-10-20T03:35:04.558Z,96543.66
2023-10-20T03:37:32.671Z,96559.25
2023-10-20T03:40:00.327Z,96553.31
2023-10-20T03:42:28.004Z,96560.72
2023-10-20T03:44:57.602Z,96571.50
2023-10-20T03:47:29.036Z,96569.00
2023-10-20T03:49:59.078Z,96569.06
2023-10-20T03:52:29.443Z,96568.13
2023-10-20T03:54:57.267Z,96559.34
2023-10-20T03:57:25.020Z,96536.72
2023-10-20T03:59:52.773Z,96533.78
2023-10-20T04:02:21.806Z,96548.94
2023-10-20T04:04:49.455Z,96556.44
2023-10-20T04:07:17.171Z,96541.63
2023-10-20T04:09:45.123Z,96532.59
2023-10-20T04:12:12.798Z,96509.31
2023-10-20T04:14:40.500Z,96504.38
2023-10-20T04:17:08.296Z,96489.97
2023-10-20T04:19:37.375Z,96486.06
2023-10-20T04:22:13.724Z,96491.00
2023-10-20T04:24:42.397Z,96501.44
2023-10-20T04:27:21.714Z,96490.88
2023-10-20T04:30:09.867Z,96490.69
2023-10-20T04:32:55.137Z,96473.41
2023-10-20T04:35:40.881Z,96468.63
2023-10-20T04:38:26.301Z,96475.66
2023-10-20T04:41:11.162Z,96465.38
2023-10-20T04:43:42.996Z,96457.31
2023-10-20T04:46:28.194Z,96463.81
2023-10-20T04:49:28.083Z,96463.00
2023-10-20T04:52:16.787Z,96438.28
2023-10-20T04:54:52.017Z,96417.94
2023-10-20T04:57:36.576Z,96417.41
2023-10-20T05:00:18.425Z,96408.81
2023-10-20T05:02:58.204Z,96395.88
2023-10-20T05:05:34.600Z,96395.88
2023-10-20T05:08:06.705Z,96399.19
2023-10-20T05:10:34.802Z,96386.25
2023-10-20T05:13:02.388Z,96383.84
2023-10-20T05:15:32.780Z,96373.22
2023-10-20T05:18:00.943Z,96361.97
2023-10-20T05:20:28.791Z,96341.97
2023-10-20T05:22:57.572Z,96333.66
2023-10-20T05:25:26.689Z,96347.72
2023-10-20T05:27:54.531Z,96352.06
2023-10-20T05:30:22.162Z,96335.72
2023-10-20T05:32:51.113Z,96331.50
2023-10-20T05:35:18.897Z,96331.94
2023-10-20T05:37:46.558Z,96331.38
2023-10-20T05:40:14.601Z,96339.34
2023-10-20T05:42:43.593Z,96331.38
2023-10-20T05:45:18.280Z,96324.84
2023-10-20T05:47:46.576Z,96316.59
2023-10-20T05:50:14.670Z,96309.31
2023-10-20T05:52:42.445Z,96303.28
2023-10-20T05:55:12.131Z,96308.06
2023-10-20T06:01:48.091Z,96312.88
2023-10-20T06:04:45.576Z,96307.72
2023-10-20T06:07:20.737Z,96319.84
2023-10-20T06:10:25.319Z,96333.97
2023-10-20T06:13:05.124Z,96325.41
2023-10-20T08:01:47.947Z,96239.41
2023-10-20T08:04:15.710Z,96235.19
2023-10-20T08:06:43.485Z,96229.44
2023-10-20T08:09:13.026Z,96227.88
2023-10-20T08:11:43.071Z,96235.63
2023-10-20T08:14:10.983Z,96244.00
2023-10-20T08:16:39.442Z,96239.13
2023-10-20T08:19:08.627Z,96240.59
2023-10-20T08:21:36.612Z,96242.00
2023-10-20T08:24:06.076Z,96245.22
2023-10-20T08:26:34.025Z,96253.44
2023-10-20T08:29:02.268Z,96243.91
2023-10-20T08:31:29.996Z,96240.38
2023-10-20T08:33:58.476Z,96237.19
2023-10-20T08:36:27.664Z,96240.13
2023-10-20T08:38:55.416Z,96242.81
2023-10-20T08:41:24.950Z,96246.16
2023-10-20T08:43:53.390Z,96233.56
2023-10-20T08:46:23.970Z,96247.59
2023-10-20T08:48:52.059Z,96250.56
2023-10-20T08:51:20.293Z,96244.19
2023-10-20T08:53:50.021Z,96251.75
2023-10-20T08:56:18.064Z,96246.56
2023-10-20T08:58:47.527Z,96242.78
2023-10-20T09:01:16.201Z,96249.25
2023-10-20T09:03:46.178Z,96248.44
2023-10-20T09:06:15.842Z,96246.59
2023-10-20T09:08:45.193Z,96256.78
2023-10-20T09:11:14.648Z,96250.53
2023-10-20T09:13:44.485Z,96254.88
2023-10-20T09:16:14.525Z,96262.84
2023-10-20T09:18:47.712Z,96264.97
2023-10-20T09:21:16.412Z,96256.28
2023-10-20T09:23:55.353Z,96245.31
2023-10-20T09:26:25.171Z,96239.88
2023-10-20T09:28:54.915Z,96246.75
2023-10-20T09:31:23.846Z,96250.66
2023-10-20T09:33:52.250Z,96242.63
2023-10-20T09:36:20.371Z,96243.09
2023-10-20T09:38:52.511Z,96243.97
2023-10-20T09:41:24.309Z,96240.56
2023-10-20T09:43:54.575Z,96241.47
2023-10-20T09:46:46.840Z,96231.13
2023-10-20T09:49:17.430Z,96232.16
2023-10-20T09:51:46.657Z,96217.00
2023-10-20T09:54:15.611Z,96236.75
2023-10-20T09:56:46.572Z,96238.47
2023-10-20T09:59:19.563Z,96239.91
2023-10-20T10:01:47.503Z,96235.06
2023-10-20T10:04:15.478Z,96238.19
2023-10-20T10:06:46.804Z,96242.13
2023-10-20T10:09:16.306Z,96243.28
2023-10-20T10:11:46.687Z,96239.34
2023-10-20T10:14:21.626Z,96248.13
2023-10-20T10:16:54.644Z,96254.66
2023-10-20T10:19:26.406Z,96250.06
2023-10-20T10:21:58.082Z,96249.56
2023-10-20T10:24:26.529Z,96239.78
2023-10-20T10:26:58.096Z,96233.72
2023-10-20T10:29:48.289Z,96224.41
2023-10-20T10:32:20.274Z,96215.97
2023-10-20T10:34:50.017Z,96216.78
2023-10-20T10:37:30.431Z,96209.19
2023-10-20T10:40:10.077Z,96215.06
2023-10-20T10:42:40.965Z,96209.84
2023-10-20T10:45:24.414Z,96201.31
2023-10-20T10:47:53.683Z,96201.47
2023-10-20T10:50:23.378Z,96203.84
2023-10-20T10:52:52.711Z,96194.25
2023-10-20T10:55:21.338Z,96183.78
2023-10-20T10:57:52.238Z,96176.53
2023-10-20T11:00:20.626Z,96181.00
2023-10-20T11:02:48.920Z,96170.81
2023-10-20T11:05:17.532Z,96167.00
2023-10-20T11:08:02.706Z,96163.38
2023-10-20T11:10:31.986Z,96167.91
2023-10-20T11:13:01.710Z,96176.84
2023-10-20T11:15:30.677Z,96169.25
2023-10-20T11:17:59.946Z,96167.53
2023-10-20T11:20:30.797Z,96160.00
2023-10-20T11:22:59.780Z,96162.75
2023-10-20T11:25:27.756Z,96169.25
2023-10-20T11:27:56.273Z,96170.28
2023-10-20T11:30:27.528Z,96166.53
2023-10-20T11:32:56.164Z,96164.72
2023-10-20T11:35:25.785Z,96156.72
2023-10-20T11:37:54.255Z,96145.91
2023-10-20T11:40:22.310Z,96149.84
2023-10-20T11:42:50.279Z,96135.56
2023-10-20T11:45:18.914Z,96127.13
2023-10-20T11:47:48.068Z,96137.66
2023-10-20T11:50:16.774Z,96129.63
2023-10-20T11:52:45.041Z,96133.06
2023-10-20T11:55:13.610Z,96129.31
2023-10-20T11:57:41.558Z,96121.44
2023-10-20T12:00:11.068Z,96107.47
2023-10-20T12:02:39.556Z,96087.06
2023-10-20T12:05:09.725Z,96089.75
2023-10-20T12:07:38.496Z,96081.91
2023-10-20T12:10:07.570Z,96081.13
2023-10-20T12:12:35.641Z,96096.91
2023-10-20T12:15:04.326Z,96093.50
2023-10-20T12:17:32.349Z,96087.41
2023-10-20T12:20:00.039Z,96089.44
2023-10-20T12:22:29.129Z,96086.94
2023-10-20T12:24:57.046Z,96088.31
2023-10-20T12:27:25.300Z,96095.44
2023-10-20T12:29:53.080Z,96088.59
2023-10-20T12:32:20.738Z,96085.91
2023-10-20T12:34:48.365Z,96086.38
2023-10-20T12:37:15.954Z,96075.47
2023-10-20T12:39:44.828Z,96078.28
2023-10-20T12:42:13.695Z,96073.94
2023-10-20T12:44:41.296Z,96074.72
2023-10-20T12:47:08.916Z,96066.56
2023-10-20T12:49:36.557Z,96055.59
2023-10-20T12:52:05.308Z,96059.56
2023-10-20T12:54:33.286Z,96064.25
2023-10-20T12:57:02.559Z,96058.97
2023-10-20T12:59:30.766Z,96062.25
2023-10-20T13:01:58.617Z,96048.16
2023-10-20T13:04:26.604Z,96047.56
2023-10-20T13:07:00.741Z,96054.94
2023-10-20T13:09:29.054Z,96059.41
2023-10-20T13:11:58.718Z,96052.66
2023-10-20T13:14:28.276Z,96072.53
2023-10-20T13:16:56.242Z,96080.00
2023-10-20T13:19:24.184Z,96071.00
2023-10-20T13:21:51.907Z,96065.97
2023-10-20T13:24:19.686Z,96070.94
2023-10-20T13:26:47.485Z,96072.53
2023-10-20T13:29:15.214Z,96079.59
2023-10-20T13:31:44.480Z,96070.38
2023-10-20T13:34:12.293Z,96067.69
2023-10-20T13:36:40.017Z,96060.53
2023-10-20T13:39:18.150Z,96056.06
2023-10-20T13:41:48.650Z,96061.25
2023-10-20T13:44:17.795Z,96051.69
2023-10-20T13:46:47.007Z,96047.28
2023-10-20T13:49:14.742Z,96055.66
2023-10-20T13:51:42.488Z,96059.72
2023-10-20T13:54:10.364Z,96062.28
2023-10-20T13:56:38.152Z,96066.59
2023-10-20T13:59:06.925Z,96066.19
2023-10-20T14:01:34.902Z,96057.94
2023-10-20T14:04:06.216Z,96051.53
2023-10-20T14:06:34.254Z,96041.72
2023-10-20T14:09:02.413Z,96050.25
2023-10-20T14:11:30.450Z,96047.16
2023-10-20T14:13:58.207Z,96049.38
2023-10-20T14:16:26.166Z,96060.09
2023-10-20T14:18:53.922Z,96065.22
2023-10-20T14:21:24.450Z,96064.44
2023-10-20T14:23:52.287Z,96055.13
2023-10-20T14:26:20.237Z,96070.84
2023-10-20T14:28:47.931Z,96080.00
2023-10-20T14:31:15.802Z,96078.56
2023-10-20T14:33:43.564Z,96077.00
2023-10-20T14:36:14.732Z,96086.09
2023-10-20T14:38:43.913Z,96091.56
2023-10-20T14:41:11.834Z,96092.03
2023-10-20T14:43:40.719Z,96103.59
2023-10-20T14:46:10.133Z,96103.53
2023-10-20T14:48:38.467Z,96110.19
2023-10-20T14:51:11.784Z,96124.22
2023-10-20T14:53:39.770Z,96113.03
2023-10-20T14:56:16.236Z,96127.97
2023-10-20T14:58:44.072Z,96131.53
2023-10-20T15:01:13.165Z,96139.97
2023-10-20T15:03:41.152Z,96136.69
2023-10-20T15:06:09.041Z,96149.81
2023-10-20T15:08:37.098Z,96159.25
2023-10-20T15:11:10.010Z,96158.03
2023-10-20T15:13:37.701Z,96150.34
2023-10-20T15:16:07.018Z,96155.84
2023-10-20T15:18:35.185Z,96164.22
2023-10-20T15:21:05.751Z,96160.16
2023-10-20T15:23:33.782Z,96173.72
2023-10-20T15:26:04.752Z,96169.31
2023-10-20T15:28:34.014Z,96173.78
2023-10-20T15:31:08.523Z,96183.28
2023-10-20T15:33:37.339Z,96193.50
2023-10-20T15:36:06.776Z,96196.38
2023-10-20T15:38:34.942Z,96216.88
2023-10-20T15:41:02.840Z,96218.63
2023-10-20T15:43:30.639Z,96226.03
2023-10-20T15:46:00.866Z,96228.22
2023-10-20T15:48:29.059Z,96236.66
2023-10-20T15:50:57.010Z,96241.00
2023-10-20T15:53:25.486Z,96240.59
2023-10-20T15:55:55.825Z,96252.69
2023-10-20T15:58:23.561Z,96253.72
2023-10-20T16:00:51.395Z,96267.31
2023-10-20T16:03:21.018Z,96277.88
2023-10-20T16:05:48.962Z,96276.47
2023-10-20T16:08:16.703Z,96277.69
2023-10-20T16:10:44.636Z,96280.09
2023-10-20T16:13:12.346Z,96291.53
2023-10-20T16:15:40.159Z,96291.47
2023-10-20T16:18:08.286Z,96294.28
2023-10-20T16:20:38.209Z,96299.34
2023-10-20T16:23:06.157Z,96296.31
2023-10-20T16:25:36.550Z,96299.34
2023-10-20T16:28:04.939Z,96308.72
2023-10-20T16:30:33.112Z,96310.25
2023-10-20T16:33:01.605Z,96323.03
2023-10-20T16:35:33.884Z,96320.81
2023-10-20T16:38:03.682Z,96326.78
2023-10-20T16:40:32.589Z,96329.59
2023-10-20T16:43:00.567Z,96335.75
2023-10-20T16:45:28.512Z,96339.16
2023-10-20T16:47:56.405Z,96341.56
2023-10-20T16:50:24.509Z,96344.63
2023-10-20T16:52:52.933Z,96355.66
2023-10-20T16:55:22.318Z,96362.53
2023-10-20T16:57:50.242Z,96369.03
2023-10-20T17:00:18.729Z,96368.34
2023-10-20T17:02:48.377Z,96374.31
2023-10-20T17:05:16.315Z,96377.13
2023-10-20T17:07:44.046Z,96380.47
2023-10-20T17:10:13.691Z,96382.47
2023-10-20T17:12:43.038Z,96383.22
2023-10-20T17:15:10.836Z,96391.13
2023-10-20T17:17:38.677Z,96388.66
2023-10-20T17:20:07.341Z,96395.72
2023-10-20T17:22:35.304Z,96397.88
2023-10-20T17:25:03.561Z,96409.06
2023-10-20T17:27:31.397Z,96407.84
2023-10-20T17:30:00.728Z,96414.91
2023-10-20T17:32:28.614Z,96409.63
2023-10-20T17:34:56.430Z,96417.03
2023-10-20T17:37:24.043Z,96421.53
2023-10-20T17:39:53.293Z,96424.94
2023-10-20T17:42:21.380Z,96426.16
2023-10-20T17:44:49.040Z,96437.03
2023-10-20T17:47:18.026Z,96436.03
2023-10-20T17:49:45.600Z,96436.53
2023-10-20T17:52:13.189Z,96439.53
2023-10-20T17:54:40.824Z,96445.72
2023-10-20T17:57:08.485Z,96447.09
2023-10-20T17:59:36.316Z,96450.44
2023-10-20T18:02:04.099Z,96451.66
2023-10-20T18:04:33.199Z,96451.31
2023-10-20T18:07:00.830Z,96457.97
2023-10-20T18:09:28.441Z,96452.50
2023-10-20T18:11:56.411Z,96464.84
2023-10-20T18:14:23.959Z,96460.66
2023-10-20T18:16:51.987Z,96471.56
2023-10-20T18:19:19.679Z,96471.84
2023-10-20T18:21:48.610Z,96472.59
2023-10-20T18:24:16.166Z,96469.44
2023-10-20T18:26:43.786Z,96471.31
2023-10-20T18:29:11.550Z,96469.75
2023-10-20T18:31:39.202Z,96468.63
2023-10-20T18:34:07.277Z,96477.00
2023-10-20T18:36:34.876Z,96475.53
2023-10-20T18:39:04.460Z,96474.63
2023-10-20T18:41:32.767Z,96473.53
2023-10-20T18:44:01.491Z,96475.22
2023-10-20T18:46:29.076Z,96478.19
2023-10-20T18:48:56.640Z,96478.06
2023-10-20T18:51:24.255Z,96484.81
2023-10-20T18:53:53.171Z,96480.94
2023-10-20T18:56:22.846Z,96485.56
2023-10-20T18:58:50.485Z,96482.06
2023-10-20T19:01:18.089Z,96487.22
2023-10-20T19:03:45.875Z,96490.75
2023-10-20T19:06:14.134Z,96491.09
2023-10-20T19:08:42.123Z,96503.88
2023-10-20T19:11:11.518Z,96501.31
2023-10-20T19:13:40.816Z,96497.09
2023-10-20T19:16:08.461Z,96506.75
2023-10-20T19:18:36.567Z,96519.50
2023-10-20T19:21:06.044Z,96525.41
2023-10-20T19:23:34.081Z,96520.53
2023-10-20T19:26:02.280Z,96526.25
2023-10-20T19:28:30.698Z,96518.91
2023-10-20T19:31:01.276Z,96534.91
2023-10-20T19:33:29.439Z,96527.63
2023-10-20T19:35:57.586Z,96523.25
2023-10-20T19:38:25.649Z,96527.63
2023-10-20T19:40:53.913Z,96529.84
2023-10-20T19:43:21.760Z,96523.34
2023-10-20T19:45:49.428Z,96535.72
2023-10-20T19:48:18.511Z,96541.19
2023-10-20T19:50:46.487Z,96545.53
2023-10-20T19:53:14.185Z,96546.91
2023-10-20T19:55:43.901Z,96543.25
2023-10-20T19:58:12.083Z,96550.13
2023-10-20T20:00:40.661Z,96558.81
2023-10-20T20:03:08.860Z,96553.78
2023-10-20T20:05:38.341Z,96549.78
2023-10-20T20:08:06.157Z,96566.28
2023-10-20T20:10:33.965Z,96567.81
2023-10-20T20:13:01.655Z,96578.19
2023-10-20T20:15:29.406Z,96573.19
2023-10-20T20:17:57.742Z,96579.19
2023-10-20T20:20:25.559Z,96580.41
2023-10-20T20:22:54.813Z,96590.41
2023-10-20T20:25:22.462Z,96587.44
2023-10-20T20:27:50.329Z,96583.88
2023-10-20T20:30:18.210Z,96578.84
2023-10-20T20:32:46.120Z,96575.34
2023-10-20T20:35:13.857Z,96590.53
2023-10-20T20:37:41.697Z,96587.22
2023-10-20T20:40:11.845Z,96597.06
2023-10-20T20:42:40.974Z,96589.25
2023-10-20T20:45:10.467Z,96597.25
2023-10-20T20:47:38.274Z,96598.59
2023-10-20T20:50:10.671Z,96603.44
2023-10-20T20:52:41.065Z,96600.78
2023-10-20T20:55:11.900Z,96603.22
2023-10-20T20:57:39.620Z,96606.25
2023-10-20T21:00:08.606Z,96615.66
2023-10-20T21:02:36.477Z,96616.66
2023-10-20T21:05:04.620Z,96622.00
2023-10-20T21:07:32.330Z,96632.13
2023-10-20T21:10:00.062Z,96627.97
2023-10-20T21:12:30.580Z,96623.28
2023-10-20T21:14:58.696Z,96624.81
2023-10-20T21:17:26.600Z,96634.38
2023-10-20T21:19:54.308Z,96638.53
2023-10-20T21:22:22.145Z,96642.03
2023-10-20T21:24:49.799Z,96644.38
2023-10-20T21:27:17.485Z,96631.44
2023-10-20T21:29:46.550Z,96637.00
2023-10-20T21:32:14.410Z,96624.66
2023-10-20T21:34:42.165Z,96631.03
2023-10-20T21:37:09.998Z,96630.16
2023-10-20T21:39:37.761Z,96625.97
2023-10-20T21:42:06.426Z,96623.66
2023-10-20T21:44:34.904Z,96619.31
2023-10-20T21:47:04.277Z,96624.19
2023-10-20T21:49:32.013Z,96622.97
2023-10-20T21:52:01.801Z,96621.81
2023-10-20T21:54:29.525Z,96625.66
2023-10-20T21:56:57.408Z,96610.94
2023-10-20T21:59:25.289Z,96619.00
2023-10-20T22:02:08.384Z,96624.66
2023-10-20T22:04:39.095Z,96629.69
2023-10-20T22:07:06.928Z,96630.69
2023-10-20T22:09:50.037Z,96638.22
2023-10-20T22:12:20.428Z,96632.38
2023-10-20T22:14:48.156Z,96641.53
2023-10-20T22:17:16.063Z,96639.72
2023-10-20T22:19:45.348Z,96642.72
2023-10-20T22:22:13.264Z,96638.34
2023-10-20T22:24:41.419Z,96643.56
2023-10-20T22:27:09.401Z,96637.38
2023-10-20T22:29:37.810Z,96648.38
2023-10-20T22:32:06.934Z,96648.38
2023-10-20T22:34:35.050Z,96652.91
2023-10-20T22:37:04.695Z,96651.91
2023-10-20T22:39:32.436Z,96650.41
2023-10-20T22:42:01.168Z,96652.94
2023-10-20T22:44:29.724Z,96652.59
2023-10-20T22:46:57.589Z,96657.56
2023-10-20T22:49:25.823Z,96653.91
2023-10-20T22:51:53.630Z,96653.41
2023-10-20T22:54:22.977Z,96657.94
2023-10-20T22:56:50.882Z,96661.25
2023-10-20T22:59:18.707Z,96664.91
2023-10-20T23:01:46.613Z,96672.13
2023-10-20T23:04:17.169Z,96675.66
2023-10-20T23:06:46.599Z,96670.44
2023-10-20T23:09:15.039Z,96672.94
2023-10-20T23:11:44.985Z,96676.47
2023-10-20T23:14:13.769Z,96679.47
2023-10-20T23:16:42.003Z,96687.00
2023-10-20T23:19:10.103Z,96694.53
2023-10-20T23:21:38.031Z,96689.69
2023-10-20T23:24:11.680Z,96692.38
2023-10-20T23:26:43.528Z,96689.84
2023-10-20T23:29:16.666Z,96687.34
2023-10-20T23:32:23.845Z,96687.53
2023-10-20T23:34:54.914Z,96697.38
2023-10-20T23:37:32.000Z,96694.03
2023-10-20T23:40:03.248Z,96695.88
2023-10-20T23:42:34.926Z,96692.03
2023-10-20T23:45:42.608Z,96693.53
2023-10-20T23:48:17.044Z,96697.53
2023-10-20T23:50:49.424Z,96690.84
2023-10-20T23:56:17.637Z,96706.75
